createdAt,value
2022-10-10T00:04:11.714Z,10.07
2022-10-10T00:08:55.519Z,9.97
2022-10-10T00:13:39.390Z,10.80
2022-10-10T00:18:22.987Z,8.40
2022-10-10T00:23:08.233Z,8.70
2022-10-10T00:27:51.621Z,8.50
2022-10-10T00:32:35.300Z,7.30
2022-10-10T00:37:19.075Z,7.40
2022-10-10T00:42:04.071Z,7.70
2022-10-10T00:46:47.658Z,8.30
2022-10-10T00:51:31.760Z,6.97
2022-10-10T00:56:16.744Z,10.07
2022-10-10T01:01:01.802Z,10.53
2022-10-10T01:05:46.435Z,12.40
2022-10-10T01:10:30.356Z,9.53
2022-10-10T01:15:22.483Z,8.87
2022-10-10T01:20:57.425Z,9.63
2022-10-10T01:25:52.881Z,10.47
2022-10-10T01:30:37.957Z,12.60
2022-10-10T01:35:34.156Z,13.83
2022-10-10T01:40:25.199Z,11.63
2022-10-10T01:45:09.618Z,11.43
2022-10-10T01:49:58.461Z,12.23
2022-10-10T01:54:52.944Z,13.43
2022-10-10T01:59:43.981Z,12.00
2022-10-10T02:04:32.921Z,10.77
2022-10-10T02:09:22.938Z,10.30
2022-10-10T02:14:13.472Z,11.20
2022-10-10T02:18:59.992Z,10.83
2022-10-10T02:23:47.204Z,11.00
2022-10-10T02:28:39.586Z,11.20
2022-10-10T02:33:31.478Z,11.17
2022-10-10T02:38:16.802Z,11.27
2022-10-10T02:43:03.156Z,12.80
2022-10-10T02:47:48.096Z,17.43
2022-10-10T02:52:31.660Z,18.20
2022-10-10T02:57:15.169Z,17.60
2022-10-10T03:01:58.864Z,19.33
2022-10-10T03:06:43.796Z,18.13
2022-10-10T03:11:27.244Z,17.17
2022-10-10T03:16:11.417Z,16.30
2022-10-10T03:20:56.781Z,17.43
2022-10-10T03:25:44.074Z,17.30
2022-10-10T03:30:27.636Z,18.43
2022-10-10T03:35:11.073Z,17.27
2022-10-10T03:39:54.505Z,18.97
2022-10-10T03:44:39.419Z,18.47
2022-10-10T03:49:22.883Z,17.63
2022-10-10T03:54:06.548Z,20.10
2022-10-10T03:58:50.052Z,17.80
2022-10-10T04:03:34.925Z,16.70
2022-10-10T04:08:18.630Z,17.83
2022-10-10T04:13:02.212Z,16.87
2022-10-10T04:17:45.722Z,17.73
2022-10-10T04:22:30.656Z,18.60
2022-10-10T04:27:14.190Z,20.07
2022-10-10T04:31:57.616Z,19.50
2022-10-10T04:36:41.024Z,18.50
2022-10-10T04:41:25.900Z,16.20
2022-10-10T04:46:09.345Z,15.10
2022-10-10T04:50:53.826Z,13.63
2022-10-10T04:55:37.330Z,12.60
2022-10-10T05:00:22.578Z,10.67
2022-10-10T05:05:07.159Z,14.50
2022-10-10T05:09:50.735Z,16.03
2022-10-10T05:14:34.195Z,17.07
2022-10-10T05:19:19.042Z,16.33
2022-10-10T05:24:03.232Z,17.10
2022-10-10T05:28:46.733Z,17.37
2022-10-10T05:33:30.444Z,16.97
2022-10-10T05:38:15.341Z,15.23
2022-10-10T05:42:58.893Z,15.20
2022-10-10T05:47:42.513Z,12.93
2022-10-10T05:52:26.041Z,12.67
2022-10-10T05:57:16.086Z,12.00
2022-10-10T06:01:59.937Z,12.37
2022-10-10T06:06:46.188Z,11.77
2022-10-10T06:11:29.698Z,12.37
2022-10-10T06:16:15.814Z,12.60
2022-10-10T06:21:03.127Z,10.57
2022-10-10T06:25:46.597Z,11.00
2022-10-10T06:30:30.174Z,10.63
2022-10-10T06:35:15.088Z,10.47
2022-10-10T06:39:58.642Z,10.60
2022-10-10T06:44:42.212Z,10.80
2022-10-10T06:49:25.956Z,10.53
2022-10-10T06:54:12.100Z,10.73
2022-10-10T06:58:55.782Z,12.30
2022-10-10T07:03:39.233Z,12.13
2022-10-10T07:08:23.445Z,12.57
2022-10-10T07:13:08.302Z,10.90
2022-10-10T07:17:58.852Z,9.83
2022-10-10T07:22:42.305Z,10.90
2022-10-10T07:27:25.906Z,9.53
2022-10-10T07:32:11.072Z,9.77
2022-10-10T07:36:54.554Z,10.00
2022-10-10T07:41:38.008Z,8.03
2022-10-10T07:46:22.038Z,9.37
2022-10-10T07:51:09.300Z,8.67
2022-10-10T07:55:52.860Z,8.57
2022-10-10T08:00:36.804Z,7.13
2022-10-10T08:05:20.326Z,7.73
2022-10-10T08:10:05.730Z,8.13
2022-10-10T08:14:49.365Z,9.90
2022-10-10T08:19:32.849Z,9.87
2022-10-10T08:24:17.118Z,10.53
2022-10-10T08:29:02.042Z,8.57
2022-10-10T08:33:47.237Z,8.73
2022-10-10T08:38:30.753Z,8.93
2022-10-10T08:43:23.477Z,7.67
2022-10-10T08:48:13.851Z,7.30
2022-10-10T08:53:00.326Z,6.60
2022-10-10T08:57:50.875Z,7.30
2022-10-10T09:02:55.276Z,6.47
2022-10-10T09:07:56.957Z,6.00
2022-10-10T09:12:50.036Z,6.33
2022-10-10T09:17:40.356Z,6.93
2022-10-10T09:22:27.502Z,7.07
2022-10-10T09:27:16.314Z,5.87
2022-10-10T09:32:04.167Z,6.67
2022-10-10T09:36:48.875Z,6.27
2022-10-10T09:41:37.731Z,6.33
2022-10-10T09:46:22.722Z,6.30
2022-10-10T09:51:08.407Z,5.95
2022-10-10T09:55:53.947Z,5.80
2022-10-10T10:00:38.386Z,6.82
2022-10-10T10:05:28.251Z,6.22
2022-10-10T10:10:19.959Z,6.05
2022-10-10T10:15:06.923Z,6.32
2022-10-10T10:19:50.529Z,6.18
2022-10-10T10:24:37.419Z,5.75
2022-10-10T10:29:31.910Z,5.30
2022-10-10T10:34:36.391Z,4.38
2022-10-10T10:39:36.705Z,5.20
2022-10-10T10:44:37.547Z,5.18
2022-10-10T10:49:25.711Z,4.30
2022-10-10T10:54:29.630Z,4.20
2022-10-10T11:00:26.214Z,4.85
2022-10-10T11:05:17.559Z,5.15
2022-10-10T11:10:19.009Z,5.32
2022-10-10T11:15:11.011Z,5.65
2022-10-10T11:20:00.219Z,5.97
2022-10-10T11:24:47.229Z,5.30
2022-10-10T11:29:35.586Z,5.15
2022-10-10T11:34:26.294Z,4.22
2022-10-10T11:39:16.033Z,3.95
2022-10-10T11:44:05.938Z,4.25
2022-10-10T11:48:56.265Z,4.07
2022-10-10T11:53:46.010Z,3.10
2022-10-10T11:58:37.146Z,3.70
2022-10-10T12:03:20.802Z,3.22
2022-10-10T12:08:13.240Z,3.13
2022-10-10T12:13:14.006Z,4.13
2022-10-10T12:17:58.708Z,4.20
2022-10-10T12:22:43.092Z,4.45
2022-10-10T12:27:29.740Z,3.45
2022-10-10T12:32:28.618Z,3.70
2022-10-10T12:37:22.369Z,3.85
2022-10-10T12:42:21.173Z,4.50
2022-10-10T12:47:46.321Z,4.00
2022-10-10T12:52:37.756Z,3.83
2022-10-10T12:57:28.699Z,4.20
2022-10-10T13:02:18.358Z,4.10
2022-10-10T13:07:04.048Z,3.75
2022-10-10T13:11:57.813Z,4.00
2022-10-10T13:16:45.301Z,4.40
2022-10-10T13:21:32.408Z,4.40
2022-10-10T13:26:23.634Z,4.35
2022-10-10T13:31:13.844Z,4.00
2022-10-10T13:36:06.710Z,3.53
2022-10-10T13:40:50.471Z,3.70
2022-10-10T13:45:38.489Z,3.60
2022-10-10T13:50:27.099Z,3.53
2022-10-10T13:55:23.845Z,3.70
2022-10-10T14:00:16.302Z,4.55
2022-10-10T14:05:01.427Z,3.85
2022-10-10T14:09:53.520Z,3.80
2022-10-10T14:14:44.469Z,3.95
2022-10-10T14:19:28.304Z,3.90
2022-10-10T14:24:11.751Z,3.88
2022-10-10T14:28:56.633Z,2.75
2022-10-10T14:33:40.163Z,3.17
2022-10-10T14:38:24.130Z,3.33
2022-10-10T14:43:07.588Z,3.80
2022-10-10T14:47:53.263Z,3.40
2022-10-10T14:52:36.691Z,2.90
2022-10-10T14:57:22.487Z,2.87
2022-10-10T15:02:05.952Z,3.37
2022-10-10T15:07:11.791Z,3.47
2022-10-10T15:11:55.014Z,3.93
2022-10-10T15:16:38.483Z,3.60
2022-10-10T15:21:22.139Z,3.30
2022-10-10T15:26:07.645Z,4.23
2022-10-10T15:30:52.938Z,4.40
2022-10-10T15:36:03.951Z,4.23
2022-10-10T15:40:39.905Z,3.93
2022-10-10T15:45:51.454Z,4.00
2022-10-10T15:50:28.552Z,4.10
2022-10-10T15:55:12.641Z,4.60
2022-10-10T15:59:56.375Z,4.20
2022-10-10T16:04:41.232Z,4.23
2022-10-10T16:09:28.452Z,6.10
2022-10-10T16:14:12.716Z,5.93
2022-10-10T16:18:56.313Z,5.63
2022-10-10T16:23:41.410Z,5.43
2022-10-10T16:28:24.870Z,5.20
2022-10-10T16:33:08.497Z,5.87
2022-10-10T16:37:52.159Z,5.97
2022-10-10T16:42:37.078Z,6.43
2022-10-10T16:47:20.876Z,6.00
2022-10-10T16:52:06.276Z,6.20
2022-10-10T16:56:49.846Z,6.33
2022-10-10T17:01:35.693Z,6.97
2022-10-10T17:06:20.843Z,6.63
2022-10-10T17:11:05.686Z,7.87
2022-10-10T17:15:49.392Z,7.10
2022-10-10T17:20:34.927Z,6.50
2022-10-10T17:25:18.484Z,6.67
2022-10-10T17:30:02.044Z,9.40
2022-10-10T17:34:45.564Z,8.97
2022-10-10T17:39:30.427Z,7.97
2022-10-10T17:44:13.999Z,8.03
2022-10-10T17:48:57.868Z,7.47
2022-10-10T17:53:41.728Z,7.67
2022-10-10T17:58:27.022Z,7.70
2022-10-10T18:03:11.308Z,8.13
2022-10-10T18:07:56.118Z,8.33
2022-10-10T18:12:39.845Z,10.10
2022-10-10T18:17:25.088Z,8.60
2022-10-10T18:22:09.252Z,8.50
2022-10-10T18:26:52.852Z,9.53
2022-10-10T18:31:38.397Z,7.57
2022-10-10T18:36:25.745Z,8.67
2022-10-10T18:41:12.380Z,8.50
2022-10-10T18:46:01.243Z,9.63
2022-10-10T18:50:44.992Z,9.07
2022-10-10T18:55:30.844Z,9.00
2022-10-10T19:00:16.475Z,9.57
2022-10-10T19:05:00.371Z,8.43
2022-10-10T19:09:43.934Z,8.20
2022-10-10T19:14:30.501Z,8.80
2022-10-10T19:19:17.480Z,7.80
2022-10-10T19:24:02.434Z,9.53
2022-10-10T19:28:46.370Z,11.77
2022-10-10T19:33:31.314Z,9.70
2022-10-10T19:38:17.206Z,9.63
2022-10-10T19:43:01.034Z,10.97
2022-10-10T19:47:44.874Z,10.80
2022-10-10T19:52:29.989Z,9.17
2022-10-10T19:57:13.502Z,7.13
2022-10-10T20:01:57.091Z,9.67
2022-10-10T20:06:43.599Z,9.83
2022-10-10T20:11:28.767Z,10.53
2022-10-10T20:16:12.680Z,10.03
2022-10-10T20:20:56.280Z,11.23
2022-10-10T20:25:40.671Z,10.00
2022-10-10T20:30:25.549Z,9.17
2022-10-10T20:35:09.673Z,8.23
2022-10-10T20:39:53.168Z,8.73
2022-10-10T20:44:36.848Z,11.17
2022-10-10T20:49:23.443Z,10.73
2022-10-10T20:54:08.016Z,10.30
2022-10-10T20:58:51.750Z,11.90
2022-10-10T21:03:35.598Z,10.73
2022-10-10T21:08:20.682Z,9.00
2022-10-10T21:13:04.940Z,8.13
2022-10-10T21:17:50.699Z,8.93
2022-10-10T21:22:35.156Z,7.40
2022-10-10T21:27:20.697Z,8.97
2022-10-10T21:32:05.484Z,7.20
2022-10-10T21:36:49.980Z,8.70
2022-10-10T21:41:34.559Z,8.07
2022-10-10T21:46:22.333Z,6.30
2022-10-10T21:51:05.889Z,6.77
2022-10-10T21:55:49.383Z,7.03
2022-10-10T22:00:33.148Z,6.93
2022-10-10T22:05:18.838Z,6.60
2022-10-10T22:10:02.328Z,6.20
2022-10-10T22:14:45.735Z,5.53
2022-10-10T22:19:29.733Z,5.27
2022-10-10T22:24:14.572Z,5.50
2022-10-10T22:28:58.286Z,5.70
2022-10-10T22:33:42.049Z,5.23
2022-10-10T22:38:25.505Z,5.97
2022-10-10T22:43:10.414Z,5.23
2022-10-10T22:47:54.038Z,4.30
2022-10-10T22:52:37.903Z,4.90
2022-10-10T22:57:21.347Z,5.27
2022-10-10T23:02:06.720Z,4.97
2022-10-10T23:06:50.280Z,5.03
2022-10-10T23:11:33.737Z,5.83
2022-10-10T23:16:17.182Z,4.57
2022-10-10T23:21:02.071Z,4.17
2022-10-10T23:25:47.545Z,4.23
2022-10-10T23:30:30.934Z,4.03
2022-10-10T23:35:14.522Z,3.60
2022-10-10T23:39:59.387Z,4.90
2022-10-10T23:44:42.783Z,4.13
2022-10-10T23:49:26.307Z,4.33
2022-10-10T23:54:09.700Z,3.67
2022-10-10T23:58:54.589Z,3.87
